Weather at Greater Rochester International Airport

Public forecast

Using degrees Fahrenheit for public forecast. Weather courtesy of forecast.io.

Current aviation weather report (METAR) for Greater Rochester International Airport

Retrieved 2021/05/11 17:54 UTC (42 minutes ago):

KROC 111754Z 29019G27KT 10SM FEW055 BKN070 11/M02 A3008 RMK AO2 PK WND 30027/1754 SLP193 T01111017 10111 20039 50002

Aviation forecast (TAF) for Greater Rochester International Airport

Retrieved 2021/05/11 18:42 UTC (0 seconds ago):

TAF KROC 111741Z 1118/1218 30020G30KT P6SM BKN050 FM112200 29014G24KT P6SM SCT035 BKN050 FM120200 27012G20KT P6SM VCSH SCT015 BKN025 FM120700 27012KT P6SM SCT035 FM121500 30012G18KT P6SM FEW250